Bergheim, Texas
Current Conditions -  °F | °C
As of 9:55 AM on Wednesday 28 Jan 2015 (Local Time) from K5C1 Reporting Station
Clear Clear  
Wind Chill: 70°   Ceiling: Unl
Heat Index: 70°   Visibility: 10mi
Dew Point: 36°   Wind: 10mph
Humidity: 28%   Direction: 220°SW
Pressure: 30.2"   Gusts: NA
Location:  29.83°N, 98.58°W
Report Text: K5C1 281555Z AUTO 22009KT 10SM CLR 21/02 A3020 RMK AO1
Loading
Personal Weather Stations






























Interactive Weather Map New forecast layout! Learn more

10-Day Weather Forecast

Advertisements
Track Severe Weather on mobile